Time;durP1;ratioP1;P1;durP2;ratioP2;P2;SDS_P1;SDS_P2;PMS_P1;PMS_P2;Temp;Humidity;BMP_temperature;BMP_pressure;BME280_temperature;BME280_humidity;BME280_pressure;Samples;Min_cycle;Max_cycle;Signal;HPM_P1;HPM_P2
2023/05/25 00:00:35;;;;;;;0.60;0.60;;;;;;;;;;4960765;28;94172;-53
2023/05/25 00:03:11;;;;;;;0.80;0.80;;;;;;;;;;4961473;28;93792;-53
2023/05/25 00:05:40;;;;;;;1.20;0.80;;;;;;;;;;4961369;28;92984;-53
2023/05/25 00:08:08;;;;;;;1.33;0.97;;;;;;;;;;4961078;28;92130;-53
2023/05/25 00:10:38;;;;;;;1.43;0.73;;;;;;;;;;4961017;28;94521;-53
2023/05/25 00:13:06;;;;;;;1.00;0.97;;;;;;;;;;4960497;28;94102;-53
2023/05/25 00:15:35;;;;;;;0.97;0.70;;;;;;;;;;4955164;28;92047;-53
2023/05/25 00:18:03;;;;;;;1.17;0.70;;;;;;;;;;4959617;28;91935;-53
2023/05/25 00:20:32;;;;;;;1.53;1.17;;;;;;;;;;4960879;28;94156;-53
2023/05/25 00:23:01;;;;;;;1.67;1.13;;;;;;;;;;4962035;28;93786;-52
2023/05/25 00:25:29;;;;;;;2.23;0.70;;;;;;;;;;4961259;28;93010;-53
2023/05/25 00:28:03;;;;;;;2.10;0.60;;;;;;;;;;4961517;28;92114;-53
2023/05/25 00:30:31;;;;;;;1.30;0.80;;;;;;;;;;4960927;28;95036;-52
2023/05/25 00:33:00;;;;;;;1.17;0.93;;;;;;;;;;4961912;28;94974;-53
2023/05/25 00:35:29;;;;;;;1.10;0.77;;;;;;;;;;4960939;28;92151;-53
2023/05/25 00:37:57;;;;;;;1.07;0.60;;;;;;;;;;4961966;28;92079;-53
2023/05/25 00:40:25;;;;;;;0.60;0.60;;;;;;;;;;4961446;28;93324;-53
2023/05/25 00:42:54;;;;;;;1.37;0.93;;;;;;;;;;4961000;28;94006;-53
2023/05/25 00:45:23;;;;;;;1.33;0.70;;;;;;;;;;4961707;28;92083;-53
2023/05/25 00:47:52;;;;;;;0.97;0.60;;;;;;;;;;4962120;28;91485;-53
2023/05/25 00:50:21;;;;;;;1.60;0.87;;;;;;;;;;4961360;28;94280;-53
2023/05/25 00:52:50;;;;;;;1.50;0.93;;;;;;;;;;4961074;28;93835;-53
2023/05/25 00:55:35;;;;;;;1.60;0.83;;;;;;;;;;4961064;28;93105;-53
2023/05/25 00:58:04;;;;;;;3.30;1.00;;;;;;;;;;4961555;28;92048;-53
2023/05/25 01:00:35;;;;;;;1.50;0.90;;;;;;;;;;4961231;28;94265;-53
2023/05/25 01:03:06;;;;;;;2.53;0.90;;;;;;;;;;4960879;28;93872;-53
2023/05/25 01:05:38;;;;;;;2.47;1.00;;;;;;;;;;4957555;28;92198;-53
2023/05/25 01:08:06;;;;;;;1.20;1.00;;;;;;;;;;4960989;28;92129;-53
2023/05/25 01:10:35;;;;;;;1.07;0.67;;;;;;;;;;4960590;28;93285;-53
2023/05/25 01:13:03;;;;;;;1.13;0.67;;;;;;;;;;4960425;28;94019;-53
2023/05/25 01:15:32;;;;;;;0.87;0.70;;;;;;;;;;4960106;28;92220;-53
2023/05/25 01:18:02;;;;;;;2.10;0.60;;;;;;;;;;4960336;28;92277;-53
2023/05/25 01:20:30;;;;;;;1.33;0.80;;;;;;;;;;4959831;28;94069;-53
2023/05/25 01:23:01;;;;;;;0.70;0.70;;;;;;;;;;4960366;28;94795;-53
2023/05/25 01:25:31;;;;;;;1.20;1.00;;;;;;;;;;4960888;28;92018;-53
2023/05/25 01:28:00;;;;;;;2.37;0.90;;;;;;;;;;4960620;28;92084;-53
2023/05/25 01:30:28;;;;;;;2.20;0.60;;;;;;;;;;4960290;28;94120;-53
2023/05/25 01:32:57;;;;;;;1.67;0.83;;;;;;;;;;4958774;28;93782;-53
2023/05/25 01:35:25;;;;;;;0.47;0.47;;;;;;;;;;4959436;28;92092;-53
2023/05/25 01:37:53;;;;;;;0.60;0.60;;;;;;;;;;4958091;28;91353;-53
2023/05/25 01:40:23;;;;;;;2.57;0.80;;;;;;;;;;4969667;28;94891;-53
2023/05/25 01:42:52;;;;;;;2.53;0.83;;;;;;;;;;4960011;28;93956;-53
2023/05/25 01:45:20;;;;;;;0.57;0.50;;;;;;;;;;4959539;28;93259;-53
2023/05/25 01:47:50;;;;;;;0.40;0.40;;;;;;;;;;4957955;28;92080;-53
2023/05/25 01:50:19;;;;;;;1.53;0.97;;;;;;;;;;4959183;28;94123;-53
2023/05/25 01:52:49;;;;;;;0.80;0.60;;;;;;;;;;4958263;28;94163;-53
2023/05/25 01:55:18;;;;;;;3.60;0.90;;;;;;;;;;4958252;28;92162;-53
2023/05/25 01:57:50;;;;;;;0.60;0.60;;;;;;;;;;4958279;28;93713;-53
2023/05/25 02:00:18;;;;;;;1.30;0.43;;;;;;;;;;4958405;28;93100;-52
2023/05/25 02:02:48;;;;;;;0.70;0.50;;;;;;;;;;4958048;28;92864;-53
2023/05/25 02:05:16;;;;;;;0.60;0.60;;;;;;;;;;4951175;28;92078;-53
2023/05/25 02:07:44;;;;;;;1.63;0.50;;;;;;;;;;4948911;28;92240;-53
2023/05/25 02:10:13;;;;;;;1.67;0.60;;;;;;;;;;4959072;28;94357;-53
2023/05/25 02:12:41;;;;;;;1.27;0.80;;;;;;;;;;4952947;28;93719;-53
2023/05/25 02:15:11;;;;;;;1.50;0.90;;;;;;;;;;4941202;28;92144;-53
2023/05/25 02:17:39;;;;;;;1.17;0.80;;;;;;;;;;4947133;28;92268;-53
2023/05/25 02:20:09;;;;;;;0.60;0.50;;;;;;;;;;4940809;28;94083;-53
2023/05/25 02:22:37;;;;;;;1.07;0.53;;;;;;;;;;4945285;28;93918;-53
2023/05/25 02:25:07;;;;;;;0.67;0.63;;;;;;;;;;4941012;28;92155;-53
2023/05/25 02:27:36;;;;;;;0.73;0.60;;;;;;;;;;4948587;28;91545;-53
2023/05/25 02:30:05;;;;;;;0.83;0.50;;;;;;;;;;4944416;28;95092;-53
2023/05/25 02:32:34;;;;;;;2.20;0.87;;;;;;;;;;4943264;28;93898;-53
2023/05/25 02:35:03;;;;;;;1.13;0.43;;;;;;;;;;4959078;28;93052;-52
2023/05/25 02:37:31;;;;;;;2.23;0.60;;;;;;;;;;4958779;28;92258;-52
2023/05/25 02:39:59;;;;;;;0.63;0.50;;;;;;;;;;4959735;28;94228;-52
2023/05/25 02:42:28;;;;;;;1.80;0.93;;;;;;;;;;4958661;28;94233;-52
2023/05/25 02:44:56;;;;;;;0.60;0.50;;;;;;;;;;4959886;28;92040;-53
2023/05/25 02:47:24;;;;;;;0.80;0.70;;;;;;;;;;4959458;28;92112;-52
2023/05/25 02:49:54;;;;;;;1.90;0.50;;;;;;;;;;4959838;28;94128;-52
2023/05/25 02:52:24;;;;;;;3.13;0.53;;;;;;;;;;4960160;28;94036;-52
2023/05/25 02:54:52;;;;;;;1.53;0.60;;;;;;;;;;4959872;28;92586;-52
2023/05/25 02:57:21;;;;;;;1.20;0.50;;;;;;;;;;4959175;28;92198;-52
2023/05/25 02:59:51;;;;;;;0.60;0.60;;;;;;;;;;4958119;28;95304;-52
2023/05/25 03:02:19;;;;;;;0.40;0.40;;;;;;;;;;4959288;28;94759;-52
2023/05/25 03:04:48;;;;;;;1.17;0.50;;;;;;;;;;4958034;28;92130;-52
2023/05/25 03:07:18;;;;;;;1.27;0.50;;;;;;;;;;4958487;28;93832;-52
2023/05/25 03:09:46;;;;;;;0.83;0.70;;;;;;;;;;4958310;28;93315;-53
2023/05/25 03:12:15;;;;;;;0.30;0.30;;;;;;;;;;4958245;28;93999;-52
2023/05/25 03:14:43;;;;;;;1.80;0.70;;;;;;;;;;4958512;28;92062;-53
2023/05/25 03:17:11;;;;;;;0.57;0.50;;;;;;;;;;4959912;28;91342;-52
2023/05/25 03:19:40;;;;;;;1.47;0.80;;;;;;;;;;4958854;28;94263;-52
2023/05/25 03:22:08;;;;;;;0.87;0.57;;;;;;;;;;4958818;28;93863;-53
2023/05/25 03:24:40;;;;;;;1.03;0.70;;;;;;;;;;4958705;28;92954;-53
2023/05/25 03:27:08;;;;;;;0.40;0.40;;;;;;;;;;4958826;28;92085;-52
2023/05/25 03:29:37;;;;;;;1.70;0.70;;;;;;;;;;4959357;28;94371;-52
2023/05/25 03:32:05;;;;;;;1.03;0.63;;;;;;;;;;4958534;28;93637;-53
2023/05/25 03:34:35;;;;;;;0.40;0.40;;;;;;;;;;4959219;28;92106;-52
2023/05/25 03:37:03;;;;;;;1.17;0.60;;;;;;;;;;4958395;28;92125;-53
2023/05/25 03:39:31;;;;;;;0.60;0.53;;;;;;;;;;4958422;28;94162;-52
2023/05/25 03:42:01;;;;;;;2.63;0.53;;;;;;;;;;4959027;28;93856;-53
2023/05/25 03:44:30;;;;;;;1.13;0.40;;;;;;;;;;4958948;28;92109;-53
2023/05/25 03:46:58;;;;;;;0.67;0.43;;;;;;;;;;4958648;28;92103;-52
2023/05/25 03:49:27;;;;;;;1.13;1.03;;;;;;;;;;4957655;28;95251;-53
2023/05/25 03:51:55;;;;;;;0.80;0.77;;;;;;;;;;4958573;28;93699;-53
2023/05/25 03:54:23;;;;;;;1.40;0.63;;;;;;;;;;4959128;28;91763;-53
2023/05/25 03:56:52;;;;;;;1.03;0.90;;;;;;;;;;4958339;28;92323;-53
2023/05/25 03:59:21;;;;;;;1.10;0.60;;;;;;;;;;4957746;28;94165;-52
2023/05/25 04:01:50;;;;;;;1.67;0.60;;;;;;;;;;4957731;28;92345;-52
2023/05/25 04:04:18;;;;;;;0.57;0.57;;;;;;;;;;4958751;28;92093;-52
2023/05/25 04:06:47;;;;;;;0.40;0.40;;;;;;;;;;4959397;28;91326;-52
2023/05/25 04:09:16;;;;;;;0.43;0.40;;;;;;;;;;4958435;28;94683;-52
2023/05/25 04:11:44;;;;;;;1.87;0.73;;;;;;;;;;4961831;28;94032;-52
2023/05/25 04:14:13;;;;;;;2.97;0.50;;;;;;;;;;4961806;28;92979;-52
2023/05/25 04:16:43;;;;;;;1.07;0.60;;;;;;;;;;4962145;28;92142;-53
2023/05/25 04:19:12;;;;;;;1.37;0.50;;;;;;;;;;4961614;28;94205;-52
2023/05/25 04:21:40;;;;;;;0.83;0.50;;;;;;;;;;4961887;28;93938;-53
2023/05/25 04:24:08;;;;;;;2.47;0.60;;;;;;;;;;4961979;28;92062;-53
2023/05/25 04:26:38;;;;;;;0.57;0.50;;;;;;;;;;4961867;28;92329;-52
2023/05/25 04:29:06;;;;;;;0.50;0.50;;;;;;;;;;4960888;28;93849;-54
2023/05/25 04:31:35;;;;;;;0.47;0.40;;;;;;;;;;4960472;28;93042;-54
2023/05/25 04:34:05;;;;;;;2.13;0.40;;;;;;;;;;4959552;28;92083;-53
2023/05/25 04:36:33;;;;;;;0.63;0.37;;;;;;;;;;4959223;28;92177;-53
2023/05/25 04:39:03;;;;;;;0.33;0.33;;;;;;;;;;4961304;28;95340;-53
2023/05/25 04:41:32;;;;;;;0.93;0.43;;;;;;;;;;4960911;28;94981;-53
2023/05/25 04:44:02;;;;;;;1.43;0.80;;;;;;;;;;4961120;28;92107;-53
2023/05/25 04:46:37;;;;;;;1.03;0.50;;;;;;;;;;4961134;28;92095;-53
2023/05/25 04:49:08;;;;;;;0.40;0.40;;;;;;;;;;4961209;28;94260;-53
2023/05/25 04:51:37;;;;;;;0.93;0.50;;;;;;;;;;4960677;28;93770;-53
2023/05/25 04:54:05;;;;;;;3.80;0.47;;;;;;;;;;4961287;28;91988;-53
2023/05/25 04:56:34;;;;;;;0.50;0.50;;;;;;;;;;4960715;28;91525;-53
2023/05/25 04:59:03;;;;;;;0.50;0.50;;;;;;;;;;4960996;28;92041;-53
2023/05/25 05:01:33;;;;;;;1.33;0.60;;;;;;;;;;4960920;28;93591;-53
2023/05/25 05:04:01;;;;;;;0.50;0.50;;;;;;;;;;4960649;28;93028;-53
2023/05/25 05:06:31;;;;;;;4.70;0.60;;;;;;;;;;4961295;28;92119;-53
2023/05/25 05:09:00;;;;;;;0.97;0.80;;;;;;;;;;4961026;28;94196;-53
2023/05/25 05:11:28;;;;;;;1.77;0.40;;;;;;;;;;4960922;28;92943;-53
2023/05/25 05:13:57;;;;;;;1.30;0.70;;;;;;;;;;4961261;28;92085;-53
2023/05/25 05:16:26;;;;;;;0.70;0.37;;;;;;;;;;4961037;28;92168;-53
2023/05/25 05:18:54;;;;;;;1.13;0.57;;;;;;;;;;4960746;28;94336;-53
2023/05/25 05:21:23;;;;;;;1.00;0.47;;;;;;;;;;4959881;28;93985;-53
2023/05/25 05:23:52;;;;;;;1.70;0.70;;;;;;;;;;4960343;28;93423;-53
2023/05/25 05:26:21;;;;;;;0.50;0.50;;;;;;;;;;4960325;28;91973;-53
2023/05/25 05:28:51;;;;;;;0.30;0.30;;;;;;;;;;4959483;28;95269;-53
2023/05/25 05:31:19;;;;;;;0.50;0.40;;;;;;;;;;4959881;28;94837;-52
2023/05/25 05:33:48;;;;;;;0.50;0.50;;;;;;;;;;4961351;28;92206;-53
2023/05/25 05:36:16;;;;;;;0.57;0.50;;;;;;;;;;4961056;28;91945;-53
2023/05/25 05:38:45;;;;;;;0.60;0.60;;;;;;;;;;4960881;28;94268;-53
2023/05/25 05:41:15;;;;;;;0.40;0.40;;;;;;;;;;4960796;28;93830;-53
2023/05/25 05:43:45;;;;;;;2.00;0.77;;;;;;;;;;4960242;28;92075;-53
2023/05/25 05:46:13;;;;;;;1.27;0.60;;;;;;;;;;4960888;28;91333;-52
2023/05/25 05:48:41;;;;;;;2.03;0.37;;;;;;;;;;4960329;28;94077;-53
2023/05/25 05:51:10;;;;;;;0.40;0.40;;;;;;;;;;4960189;28;93665;-53
2023/05/25 05:53:38;;;;;;;0.83;0.83;;;;;;;;;;4960148;28;92970;-53
2023/05/25 05:56:07;;;;;;;0.93;0.50;;;;;;;;;;4960046;28;92057;-52
2023/05/25 05:58:36;;;;;;;0.50;0.43;;;;;;;;;;4959642;28;93193;-52
2023/05/25 06:01:05;;;;;;;2.83;0.50;;;;;;;;;;4959014;28;93866;-53
2023/05/25 06:03:33;;;;;;;1.03;0.70;;;;;;;;;;4960543;28;92070;-52
2023/05/25 06:06:01;;;;;;;0.90;0.50;;;;;;;;;;4960141;28;92085;-52
2023/05/25 06:08:30;;;;;;;1.63;0.50;;;;;;;;;;4960431;28;94131;-52
2023/05/25 06:10:58;;;;;;;0.63;0.30;;;;;;;;;;4960324;28;92923;-52
2023/05/25 06:13:27;;;;;;;0.30;0.30;;;;;;;;;;4960542;28;92082;-52
2023/05/25 06:15:56;;;;;;;1.13;0.60;;;;;;;;;;4959955;28;91959;-53
2023/05/25 06:18:25;;;;;;;2.90;0.90;;;;;;;;;;4959633;28;94271;-52
2023/05/25 06:20:53;;;;;;;3.20;0.50;;;;;;;;;;4959734;28;94852;-53
2023/05/25 06:23:21;;;;;;;0.40;0.40;;;;;;;;;;4959921;28;92140;-53
2023/05/25 06:25:52;;;;;;;0.40;0.40;;;;;;;;;;4960600;28;91993;-52
2023/05/25 06:28:21;;;;;;;1.97;0.70;;;;;;;;;;4958628;28;94274;-52
2023/05/25 06:30:49;;;;;;;0.63;0.53;;;;;;;;;;4959734;28;93926;-52
2023/05/25 06:33:19;;;;;;;0.40;0.33;;;;;;;;;;4959732;28;92081;-53
2023/05/25 06:35:47;;;;;;;0.43;0.43;;;;;;;;;;4959859;28;92893;-52
2023/05/25 06:38:16;;;;;;;0.77;0.40;;;;;;;;;;4958938;28;94209;-52
2023/05/25 06:40:44;;;;;;;0.90;0.60;;;;;;;;;;4959436;28;92596;-52
2023/05/25 06:43:12;;;;;;;0.67;0.50;;;;;;;;;;4959049;28;93044;-51
2023/05/25 06:45:41;;;;;;;2.53;0.60;;;;;;;;;;4960142;28;92046;-51
2023/05/25 06:48:10;;;;;;;1.13;0.70;;;;;;;;;;4959759;28;94254;-52
2023/05/25 06:50:41;;;;;;;1.43;0.80;;;;;;;;;;4959947;28;93894;-52
2023/05/25 06:53:10;;;;;;;1.23;0.70;;;;;;;;;;4960154;28;92066;-52
2023/05/25 06:55:38;;;;;;;0.47;0.40;;;;;;;;;;4977909;28;91823;-51
2023/05/25 06:58:06;;;;;;;0.60;0.60;;;;;;;;;;4959193;28;95532;-51
2023/05/25 07:00:35;;;;;;;1.10;0.80;;;;;;;;;;4959925;28;94095;-53
2023/05/25 07:03:03;;;;;;;0.60;0.60;;;;;;;;;;4959981;28;92085;-51
2023/05/25 07:05:31;;;;;;;20.67;10.33;;;;;;;;;;4959349;28;92079;-52
2023/05/25 07:08:01;;;;;;;22.30;11.93;;;;;;;;;;4957653;28;94215;-52
2023/05/25 07:10:29;;;;;;;35.43;12.43;;;;;;;;;;4958067;28;95246;-51
2023/05/25 07:12:58;;;;;;;17.80;9.23;;;;;;;;;;4956632;28;92037;-51
2023/05/25 07:15:26;;;;;;;28.00;8.13;;;;;;;;;;4959218;28;92097;-51
2023/05/25 07:17:55;;;;;;;14.47;6.83;;;;;;;;;;4958952;28;94131;-51
2023/05/25 07:20:24;;;;;;;10.87;5.50;;;;;;;;;;4957964;28;92821;-52
2023/05/25 07:22:53;;;;;;;7.80;4.57;;;;;;;;;;4959745;28;92107;-51
2023/05/25 07:25:23;;;;;;;12.40;4.30;;;;;;;;;;4959086;28;91436;-52
2023/05/25 07:27:53;;;;;;;5.33;3.43;;;;;;;;;;4958945;28;92965;-51
2023/05/25 07:30:22;;;;;;;2.00;1.80;;;;;;;;;;4958645;28;92926;-52
2023/05/25 07:32:50;;;;;;;4.10;1.70;;;;;;;;;;4958275;28;93294;-52
2023/05/25 07:35:19;;;;;;;2.80;1.73;;;;;;;;;;4959154;28;92096;-52
2023/05/25 07:37:47;;;;;;;5.57;2.03;;;;;;;;;;4955311;28;94206;-52
2023/05/25 07:40:15;;;;;;;6.70;1.73;;;;;;;;;;4947617;28;93855;-52
2023/05/25 07:42:45;;;;;;;3.97;1.70;;;;;;;;;;4958600;28;92196;-52
2023/05/25 07:45:14;;;;;;;4.43;1.67;;;;;;;;;;4959268;28;92097;-52
2023/05/25 07:47:43;;;;;;;2.77;1.17;;;;;;;;;;4961709;28;94173;-52
2023/05/25 07:50:12;;;;;;;1.33;1.00;;;;;;;;;;4962272;28;93846;-51
2023/05/25 07:52:40;;;;;;;3.80;1.13;;;;;;;;;;4962100;28;92083;-51
2023/05/25 07:55:09;;;;;;;1.30;1.00;;;;;;;;;;4962272;28;92083;-51
2023/05/25 07:57:37;;;;;;;3.23;0.70;;;;;;;;;;4961357;28;95311;-51
2023/05/25 08:00:08;;;;;;;3.43;0.93;;;;;;;;;;4960830;28;94912;-51
2023/05/25 08:02:36;;;;;;;2.67;0.80;;;;;;;;;;4961758;28;92105;-51
2023/05/25 08:05:05;;;;;;;3.57;0.73;;;;;;;;;;4961640;28;92100;-52
2023/05/25 08:07:33;;;;;;;6.37;0.93;;;;;;;;;;4961519;28;94195;-51
2023/05/25 08:10:02;;;;;;;2.40;1.10;;;;;;;;;;4961758;28;92977;-52
2023/05/25 08:12:30;;;;;;;4.13;0.97;;;;;;;;;;4960963;28;92110;-52
2023/05/25 08:15:16;;;;;;;1.70;0.80;;;;;;;;;;4961207;28;93210;-51
2023/05/25 08:17:45;;;;;;;7.30;1.30;;;;;;;;;;4961827;28;94125;-49
2023/05/25 08:20:14;;;;;;;4.73;0.90;;;;;;;;;;4961611;28;93758;-49
2023/05/25 08:22:44;;;;;;;3.50;0.73;;;;;;;;;;4961763;28;92992;-50
2023/05/25 08:25:12;;;;;;;0.63;0.53;;;;;;;;;;4961405;28;92066;-52
2023/05/25 08:27:40;;;;;;;3.30;0.60;;;;;;;;;;4963468;28;94132;-53
2023/05/25 08:30:09;;;;;;;0.40;0.40;;;;;;;;;;4961769;28;93061;-53
2023/05/25 08:32:39;;;;;;;1.60;0.93;;;;;;;;;;4962092;28;92127;-51
2023/05/25 08:35:08;;;;;;;0.83;0.60;;;;;;;;;;4961890;28;92084;-53
2023/05/25 08:37:37;;;;;;;5.53;1.00;;;;;;;;;;4961129;28;93276;-53
2023/05/25 08:40:06;;;;;;;2.00;0.60;;;;;;;;;;4962029;28;92568;-53
2023/05/25 08:42:35;;;;;;;2.83;1.17;;;;;;;;;;4961933;28;92140;-53
2023/05/25 08:45:03;;;;;;;1.83;0.70;;;;;;;;;;4962042;28;91997;-51
2023/05/25 08:47:32;;;;;;;0.80;0.73;;;;;;;;;;4961006;28;95030;-53
2023/05/25 08:50:03;;;;;;;0.63;0.40;;;;;;;;;;4961463;28;95108;-53
2023/05/25 08:52:32;;;;;;;1.57;0.70;;;;;;;;;;4962111;28;92177;-53
2023/05/25 08:55:01;;;;;;;1.00;0.50;;;;;;;;;;4961900;28;92075;-53
2023/05/25 08:57:30;;;;;;;2.40;0.60;;;;;;;;;;4961283;28;94259;-53
2023/05/25 09:00:00;;;;;;;1.10;0.53;;;;;;;;;;4961563;28;92959;-53
2023/05/25 09:02:31;;;;;;;0.57;0.40;;;;;;;;;;4961699;28;92203;-53
2023/05/25 09:05:00;;;;;;;5.27;0.63;;;;;;;;;;4961963;28;91300;-52
2023/05/25 09:07:30;;;;;;;1.70;0.80;;;;;;;;;;4961686;28;93235;-53
2023/05/25 09:09:59;;;;;;;0.67;0.50;;;;;;;;;;4961266;28;93877;-51
2023/05/25 09:12:28;;;;;;;0.30;0.30;;;;;;;;;;4961130;28;93008;-53
2023/05/25 09:14:57;;;;;;;1.57;0.70;;;;;;;;;;4961446;28;92108;-53
2023/05/25 09:17:25;;;;;;;3.33;0.50;;;;;;;;;;4961417;28;94326;-53
2023/05/25 09:19:54;;;;;;;0.50;0.50;;;;;;;;;;4960763;28;93989;-53
2023/05/25 09:22:22;;;;;;;1.20;0.70;;;;;;;;;;4961165;28;92037;-53
2023/05/25 09:24:52;;;;;;;0.50;0.50;;;;;;;;;;4961104;28;92033;-53
2023/05/25 09:27:20;;;;;;;5.10;0.50;;;;;;;;;;4960304;28;94267;-53
2023/05/25 09:29:49;;;;;;;4.70;0.77;;;;;;;;;;4961170;28;93862;-53
2023/05/25 09:32:17;;;;;;;1.17;0.53;;;;;;;;;;4961227;28;92047;-53
2023/05/25 09:34:46;;;;;;;0.40;0.40;;;;;;;;;;4961175;28;92176;-53
2023/05/25 09:37:15;;;;;;;1.63;0.70;;;;;;;;;;4960476;28;95179;-53
2023/05/25 09:39:43;;;;;;;2.80;0.70;;;;;;;;;;4960473;28;94849;-53
2023/05/25 09:42:13;;;;;;;1.20;0.40;;;;;;;;;;4960712;28;92157;-53
2023/05/25 09:44:42;;;;;;;1.80;0.40;;;;;;;;;;4961148;28;92028;-53
2023/05/25 09:47:12;;;;;;;0.50;0.50;;;;;;;;;;4960805;28;94318;-53
2023/05/25 09:49:41;;;;;;;3.87;0.80;;;;;;;;;;4960830;28;93753;-53
2023/05/25 09:52:09;;;;;;;1.17;0.77;;;;;;;;;;4961477;28;92228;-52
2023/05/25 09:54:38;;;;;;;0.80;0.80;;;;;;;;;;4961042;28;91359;-51
2023/05/25 09:57:06;;;;;;;1.07;0.80;;;;;;;;;;4960590;28;94198;-53
2023/05/25 09:59:36;;;;;;;2.40;1.10;;;;;;;;;;4960397;28;93862;-52
2023/05/25 10:02:04;;;;;;;0.60;0.60;;;;;;;;;;4960407;28;93063;-53
2023/05/25 10:04:33;;;;;;;6.57;1.17;;;;;;;;;;4960990;28;93395;-52
2023/05/25 10:07:01;;;;;;;0.90;0.70;;;;;;;;;;4959885;28;94157;-53
2023/05/25 10:09:30;;;;;;;1.67;0.80;;;;;;;;;;4960202;28;92716;-52
2023/05/25 10:11:58;;;;;;;2.80;1.20;;;;;;;;;;4960599;28;92050;-51
2023/05/25 10:14:27;;;;;;;1.43;1.00;;;;;;;;;;4960639;28;92071;-51
2023/05/25 10:16:59;;;;;;;0.83;0.67;;;;;;;;;;4960304;28;94153;-51
2023/05/25 10:19:29;;;;;;;2.23;0.87;;;;;;;;;;4960540;28;93919;-52
2023/05/25 10:21:59;;;;;;;1.27;0.80;;;;;;;;;;4960238;28;92113;-53
2023/05/25 10:24:30;;;;;;;1.00;0.50;;;;;;;;;;4960334;28;92076;-51
2023/05/25 10:27:00;;;;;;;1.60;0.70;;;;;;;;;;4959630;28;95399;-52
2023/05/25 10:29:46;;;;;;;0.73;0.73;;;;;;;;;;4959933;28;94747;-52
2023/05/25 10:32:16;;;;;;;3.37;1.50;;;;;;;;;;4960643;28;91910;-52
2023/05/25 10:34:44;;;;;;;4.50;1.23;;;;;;;;;;4960378;28;92172;-51
2023/05/25 10:37:13;;;;;;;1.33;1.23;;;;;;;;;;4959486;28;93179;-51
2023/05/25 10:39:41;;;;;;;2.80;0.93;;;;;;;;;;4959857;28;93863;-52
2023/05/25 10:42:11;;;;;;;1.50;1.23;;;;;;;;;;4959892;28;92096;-51
2023/05/25 10:44:40;;;;;;;4.30;1.03;;;;;;;;;;4960717;28;91351;-51
2023/05/25 10:47:09;;;;;;;0.90;0.80;;;;;;;;;;4960034;28;94376;-51
2023/05/25 10:49:51;;;;;;;3.27;0.73;;;;;;;;;;4959782;28;93623;-52
2023/05/25 10:52:20;;;;;;;1.53;0.87;;;;;;;;;;4959910;28;92896;-52
2023/05/25 10:54:49;;;;;;;2.63;1.17;;;;;;;;;;4960379;28;92104;-53
2023/05/25 10:57:20;;;;;;;5.77;1.13;;;;;;;;;;4959505;28;93173;-53
2023/05/25 10:59:49;;;;;;;2.50;0.60;;;;;;;;;;4959755;28;93816;-53
2023/05/25 11:02:21;;;;;;;1.77;0.80;;;;;;;;;;4959886;28;92009;-53
2023/05/25 11:04:51;;;;;;;2.40;0.70;;;;;;;;;;4959974;28;92056;-53
2023/05/25 11:07:20;;;;;;;1.30;0.60;;;;;;;;;;4959370;28;94357;-53
2023/05/25 11:10:06;;;;;;;0.70;0.60;;;;;;;;;;4960099;28;94014;-52
2023/05/25 11:12:34;;;;;;;0.60;0.60;;;;;;;;;;4959540;28;92632;-53
2023/05/25 11:15:09;;;;;;;2.33;0.97;;;;;;;;;;4959999;28;92043;-53
2023/05/25 11:17:47;;;;;;;1.23;0.70;;;;;;;;;;4958864;28;95194;-53
2023/05/25 11:20:23;;;;;;;2.40;0.70;;;;;;;;;;4960849;28;94982;-52
2023/05/25 11:22:52;;;;;;;0.50;0.43;;;;;;;;;;4963539;28;91981;-53
2023/05/25 11:25:36;;;;;;;2.03;1.00;;;;;;;;;;4962875;28;92075;-52
2023/05/25 11:28:05;;;;;;;1.40;0.43;;;;;;;;;;4962198;28;94151;-53
2023/05/25 11:30:33;;;;;;;4.60;0.80;;;;;;;;;;4962629;28;94071;-52
2023/05/25 11:33:02;;;;;;;0.97;0.80;;;;;;;;;;4963203;28;91899;-52
2023/05/25 11:35:35;;;;;;;1.30;0.70;;;;;;;;;;4963215;28;91260;-52
2023/05/25 11:38:07;;;;;;;0.90;0.50;;;;;;;;;;4962348;28;94106;-52
2023/05/25 11:40:35;;;;;;;1.53;0.50;;;;;;;;;;4962226;28;94092;-53
2023/05/25 11:43:07;;;;;;;0.40;0.40;;;;;;;;;;4962320;28;92712;-53
2023/05/25 11:45:36;;;;;;;0.80;0.70;;;;;;;;;;4962246;28;91982;-53
2023/05/25 11:48:05;;;;;;;0.67;0.57;;;;;;;;;;4960854;28;94297;-52
2023/05/25 11:50:35;;;;;;;0.60;0.60;;;;;;;;;;4962933;28;93812;-52
2023/05/25 11:53:05;;;;;;;1.33;0.50;;;;;;;;;;4963170;28;91923;-53
2023/05/25 11:55:35;;;;;;;1.20;0.80;;;;;;;;;;4962987;28;92093;-53
2023/05/25 11:58:03;;;;;;;1.40;1.20;;;;;;;;;;4962061;28;94410;-51
2023/05/25 12:00:32;;;;;;;3.60;1.07;;;;;;;;;;4963249;28;94040;-52
2023/05/25 12:03:01;;;;;;;1.53;1.27;;;;;;;;;;4963061;28;91917;-52
2023/05/25 12:05:38;;;;;;;1.53;0.80;;;;;;;;;;4962846;28;92067;-52
2023/05/25 12:08:07;;;;;;;1.53;0.93;;;;;;;;;;4961919;28;94023;-52
2023/05/25 12:10:36;;;;;;;1.33;1.00;;;;;;;;;;4962152;28;94834;-52
2023/05/25 12:13:08;;;;;;;3.30;0.90;;;;;;;;;;4962012;28;92020;-52
2023/05/25 12:15:37;;;;;;;4.40;0.80;;;;;;;;;;4962679;28;91978;-51
2023/05/25 12:18:05;;;;;;;4.43;0.70;;;;;;;;;;4962156;28;94177;-51
2023/05/25 12:20:37;;;;;;;0.70;0.70;;;;;;;;;;4961498;28;94074;-52
2023/05/25 12:23:07;;;;;;;1.73;0.57;;;;;;;;;;4961724;28;92126;-52
2023/05/25 12:25:35;;;;;;;0.80;0.80;;;;;;;;;;4961957;28;91341;-52
2023/05/25 12:28:17;;;;;;;0.63;0.60;;;;;;;;;;4960579;28;93086;-52
2023/05/25 12:30:46;;;;;;;0.90;0.50;;;;;;;;;;4961260;28;93990;-52
2023/05/25 12:33:15;;;;;;;2.47;0.90;;;;;;;;;;4961853;28;92895;-52
2023/05/25 12:35:46;;;;;;;6.73;1.33;;;;;;;;;;4962467;28;91945;-51
2023/05/25 12:38:17;;;;;;;3.73;1.03;;;;;;;;;;4961432;28;93996;-51
2023/05/25 12:40:45;;;;;;;1.00;0.60;;;;;;;;;;4961860;28;92842;-51
2023/05/25 12:43:16;;;;;;;1.43;0.73;;;;;;;;;;4961510;28;92067;-51
2023/05/25 12:45:44;;;;;;;1.00;0.77;;;;;;;;;;4962093;28;92055;-51
2023/05/25 12:48:13;;;;;;;2.03;0.73;;;;;;;;;;4961655;28;94278;-51
2023/05/25 12:50:56;;;;;;;1.23;0.60;;;;;;;;;;4962038;28;93791;-51
2023/05/25 12:53:27;;;;;;;1.07;0.50;;;;;;;;;;4962185;28;91896;-51
2023/05/25 12:56:02;;;;;;;1.90;0.87;;;;;;;;;;4962073;28;92000;-51
2023/05/25 12:58:30;;;;;;;1.60;0.90;;;;;;;;;;4960446;28;95201;-52
2023/05/25 13:00:59;;;;;;;3.37;1.27;;;;;;;;;;4961908;28;94842;-51
2023/05/25 13:03:27;;;;;;;3.63;0.90;;;;;;;;;;4961870;28;91928;-51
2023/05/25 13:06:00;;;;;;;1.17;0.90;;;;;;;;;;4961848;28;92163;-52
2023/05/25 13:08:31;;;;;;;3.13;1.10;;;;;;;;;;4961335;28;94164;-51
2023/05/25 13:11:00;;;;;;;0.60;0.50;;;;;;;;;;4961268;28;93931;-51
2023/05/25 13:13:28;;;;;;;2.47;0.60;;;;;;;;;;4961479;28;92429;-51
2023/05/25 13:15:57;;;;;;;1.30;0.53;;;;;;;;;;4962159;28;91209;-52
2023/05/25 13:18:25;;;;;;;1.10;0.60;;;;;;;;;;4961488;28;93936;-51
2023/05/25 13:20:54;;;;;;;1.33;0.63;;;;;;;;;;4961237;28;94053;-51
2023/05/25 13:23:24;;;;;;;0.40;0.40;;;;;;;;;;4961115;28;92944;-51
2023/05/25 13:25:54;;;;;;;2.27;0.70;;;;;;;;;;4961450;28;92068;-51
2023/05/25 13:28:22;;;;;;;1.63;0.90;;;;;;;;;;4960592;28;93182;-51
2023/05/25 13:30:50;;;;;;;0.70;0.53;;;;;;;;;;4960842;28;93967;-51
2023/05/25 13:33:19;;;;;;;5.57;1.00;;;;;;;;;;4961560;28;92058;-51
2023/05/25 13:35:57;;;;;;;1.90;1.00;;;;;;;;;;4961181;28;92069;-51
2023/05/25 13:38:26;;;;;;;1.57;0.80;;;;;;;;;;4960655;28;94091;-51
2023/05/25 13:40:56;;;;;;;1.30;0.63;;;;;;;;;;4961380;28;93966;-51
2023/05/25 13:43:24;;;;;;;2.40;1.03;;;;;;;;;;4960121;28;92026;-51
2023/05/25 13:45:53;;;;;;;2.23;0.67;;;;;;;;;;4961099;28;92139;-51
2023/05/25 13:48:21;;;;;;;0.40;0.40;;;;;;;;;;4960149;28;94169;-51
2023/05/25 13:50:50;;;;;;;2.00;0.70;;;;;;;;;;4960730;28;94855;-51
2023/05/25 13:53:18;;;;;;;1.27;0.60;;;;;;;;;;4961099;28;92083;-51
2023/05/25 13:55:47;;;;;;;1.97;1.07;;;;;;;;;;4961128;28;92075;-51
2023/05/25 13:58:17;;;;;;;2.53;0.70;;;;;;;;;;4960156;28;93966;-51
2023/05/25 14:00:45;;;;;;;1.07;0.50;;;;;;;;;;4960823;28;94134;-51
2023/05/25 14:03:14;;;;;;;2.47;0.70;;;;;;;;;;4961169;28;91875;-51
2023/05/25 14:05:42;;;;;;;2.50;1.00;;;;;;;;;;4961316;28;91296;-51
2023/05/25 14:08:11;;;;;;;1.10;0.60;;;;;;;;;;4960781;28;94029;-51
2023/05/25 14:10:41;;;;;;;1.00;0.80;;;;;;;;;;4960278;28;94014;-51
2023/05/25 14:13:10;;;;;;;0.87;0.60;;;;;;;;;;4960151;28;92991;-51
2023/05/25 14:15:40;;;;;;;0.93;0.70;;;;;;;;;;4960266;28;92070;-51
2023/05/25 14:18:08;;;;;;;3.40;1.10;;;;;;;;;;4959878;28;93140;-52
2023/05/25 14:20:39;;;;;;;1.30;0.87;;;;;;;;;;4960297;28;93862;-51
2023/05/25 14:23:08;;;;;;;2.10;0.80;;;;;;;;;;4960145;28;92169;-51
2023/05/25 14:25:40;;;;;;;0.90;0.73;;;;;;;;;;4960075;28;92093;-51
2023/05/25 14:28:08;;;;;;;1.30;0.80;;;;;;;;;;4959524;28;94160;-51
2023/05/25 14:30:37;;;;;;;1.23;0.80;;;;;;;;;;4959950;28;93954;-51
2023/05/25 14:33:06;;;;;;;2.03;0.80;;;;;;;;;;4960232;28;91865;-51
2023/05/25 14:35:35;;;;;;;2.27;0.50;;;;;;;;;;4959994;28;91951;-51
2023/05/25 14:38:03;;;;;;;1.13;0.70;;;;;;;;;;4959485;28;94072;-51
2023/05/25 14:40:32;;;;;;;2.30;0.60;;;;;;;;;;4959898;28;93975;-51
2023/05/25 14:43:00;;;;;;;0.93;0.53;;;;;;;;;;4959895;28;92112;-51
2023/05/25 14:45:28;;;;;;;1.43;0.50;;;;;;;;;;4960224;28;92063;-51
2023/05/25 14:47:56;;;;;;;1.27;0.70;;;;;;;;;;4959450;28;94205;-51
2023/05/25 14:50:44;;;;;;;3.77;0.83;;;;;;;;;;4959349;28;92796;-51
2023/05/25 14:53:12;;;;;;;4.60;0.83;;;;;;;;;;4959618;28;92088;-51
2023/05/25 14:55:40;;;;;;;3.37;0.73;;;;;;;;;;4960561;28;91380;-51